createdAt,value
2022-11-22T00:00:29.312Z,7.87
2022-11-22T00:01:29.276Z,7.87
2022-11-22T00:02:29.337Z,7.90
2022-11-22T00:03:29.262Z,7.91
2022-11-22T00:04:29.232Z,7.82
2022-11-22T00:05:29.235Z,7.88
2022-11-22T00:06:29.231Z,7.90
2022-11-22T00:07:29.259Z,7.77
2022-11-22T00:08:29.181Z,7.95
2022-11-22T00:09:29.406Z,7.87
2022-11-22T00:10:29.161Z,7.80
2022-11-22T00:11:29.201Z,7.88
2022-11-22T00:12:29.132Z,7.93
2022-11-22T00:13:29.142Z,7.93
2022-11-22T00:14:29.124Z,7.95
2022-11-22T00:15:29.105Z,7.91
2022-11-22T00:16:29.095Z,8.03
2022-11-22T00:17:29.112Z,8.00
2022-11-22T00:18:29.070Z,8.00
2022-11-22T00:19:29.219Z,7.95
2022-11-22T00:20:29.052Z,8.08
2022-11-22T00:21:29.041Z,8.18
2022-11-22T00:22:29.026Z,8.24
2022-11-22T00:23:29.040Z,8.19
2022-11-22T00:24:29.002Z,8.20
2022-11-22T00:25:28.993Z,8.05
2022-11-22T00:26:28.980Z,7.97
2022-11-22T00:27:28.979Z,7.93
2022-11-22T00:28:28.952Z,8.01
2022-11-22T00:29:29.280Z,7.97
2022-11-22T00:30:28.933Z,8.06
2022-11-22T00:31:28.943Z,8.13
2022-11-22T00:32:28.911Z,8.08
2022-11-22T00:33:28.904Z,8.09
2022-11-22T00:34:28.909Z,8.10
2022-11-22T00:35:28.881Z,8.19
2022-11-22T00:36:28.878Z,8.09
2022-11-22T00:37:28.880Z,7.87
2022-11-22T00:38:28.831Z,7.83
2022-11-22T00:39:29.083Z,7.82
2022-11-22T00:40:28.842Z,7.85
2022-11-22T00:41:28.810Z,7.90
2022-11-22T00:42:28.790Z,7.88
2022-11-22T00:43:28.781Z,7.82
2022-11-22T00:44:28.779Z,7.72
2022-11-22T00:45:28.759Z,7.79
2022-11-22T00:46:28.763Z,7.85
2022-11-22T00:47:28.743Z,7.97
2022-11-22T00:48:28.746Z,7.93
2022-11-22T00:49:29.190Z,7.79
2022-11-22T00:50:28.699Z,7.94
2022-11-22T00:51:28.723Z,7.95
2022-11-22T00:52:28.679Z,8.09
2022-11-22T00:53:28.669Z,8.06
2022-11-22T00:54:28.661Z,8.00
2022-11-22T00:55:28.649Z,7.98
2022-11-22T00:56:28.643Z,8.01
2022-11-22T00:57:28.650Z,8.12
2022-11-22T00:58:28.608Z,8.09
2022-11-22T00:59:28.981Z,8.16
2022-11-22T01:00:28.590Z,8.05
2022-11-22T01:01:28.632Z,8.01
2022-11-22T01:02:28.589Z,7.88
2022-11-22T01:03:28.560Z,7.87
2022-11-22T01:04:28.549Z,7.85
2022-11-22T01:05:28.528Z,7.75
2022-11-22T01:06:28.508Z,7.79
2022-11-22T01:07:28.561Z,7.80
2022-11-22T01:08:28.542Z,7.75
2022-11-22T01:09:28.748Z,7.83
2022-11-22T01:10:28.473Z,7.87
2022-11-22T01:11:28.469Z,7.85
2022-11-22T01:12:28.449Z,7.77
2022-11-22T01:13:28.458Z,7.76
2022-11-22T01:14:28.472Z,7.76
2022-11-22T01:15:28.423Z,7.80
2022-11-22T01:16:28.405Z,7.83
2022-11-22T01:17:28.410Z,7.80
2022-11-22T01:18:28.400Z,7.75
2022-11-22T01:19:28.633Z,7.76
2022-11-22T01:20:28.358Z,7.79
2022-11-22T01:21:28.360Z,7.88
2022-11-22T01:22:28.338Z,7.87
2022-11-22T01:23:28.327Z,7.97
2022-11-22T01:24:28.319Z,8.00
2022-11-22T01:25:28.329Z,8.06
2022-11-22T01:26:28.298Z,8.05
2022-11-22T01:27:28.286Z,8.01
2022-11-22T01:28:28.270Z,8.10
2022-11-22T01:29:28.586Z,8.06
2022-11-22T01:30:28.247Z,8.09
2022-11-22T01:31:28.282Z,8.15
2022-11-22T01:32:28.227Z,8.18
2022-11-22T01:33:28.217Z,8.00
2022-11-22T01:34:28.205Z,8.00
2022-11-22T01:35:28.200Z,7.98
2022-11-22T01:36:28.188Z,7.98
2022-11-22T01:37:28.187Z,7.88
2022-11-22T01:38:28.156Z,7.88
2022-11-22T01:39:28.455Z,7.88
2022-11-22T01:40:28.140Z,7.87
2022-11-22T01:41:28.136Z,7.83
2022-11-22T01:42:28.107Z,7.93
2022-11-22T01:43:28.136Z,8.05
2022-11-22T01:44:28.096Z,8.05
2022-11-22T01:45:28.085Z,7.98
2022-11-22T01:46:28.067Z,7.97
2022-11-22T01:47:28.068Z,8.03
2022-11-22T01:48:28.077Z,8.05
2022-11-22T01:49:28.300Z,8.03
2022-11-22T01:50:28.026Z,8.05
2022-11-22T01:51:28.025Z,8.05
2022-11-22T01:52:28.014Z,8.06
2022-11-22T01:53:28.000Z,7.85
2022-11-22T01:54:28.008Z,7.90
2022-11-22T01:55:27.977Z,7.87
2022-11-22T01:56:27.957Z,7.95
2022-11-22T01:57:27.956Z,7.94
2022-11-22T01:58:27.945Z,7.83
2022-11-22T01:59:28.241Z,7.94
2022-11-22T02:00:27.946Z,7.93
2022-11-22T02:01:27.994Z,7.94
2022-11-22T02:02:27.897Z,8.09
2022-11-22T02:03:27.908Z,8.00
2022-11-22T02:04:27.866Z,7.88
2022-11-22T02:05:27.866Z,7.93
2022-11-22T02:06:27.888Z,7.97
2022-11-22T02:07:27.876Z,7.93
2022-11-22T02:08:27.825Z,7.82
2022-11-22T02:09:28.122Z,7.87
2022-11-22T02:10:27.805Z,8.05
2022-11-22T02:11:33.602Z,7.98
2022-11-22T02:12:28.794Z,8.00
2022-11-22T02:13:27.764Z,7.93
2022-11-22T02:14:27.752Z,7.91
2022-11-22T02:15:27.746Z,8.01
2022-11-22T02:16:27.736Z,8.03
2022-11-22T02:17:27.764Z,8.12
2022-11-22T02:18:27.715Z,8.18
2022-11-22T02:19:28.074Z,7.91
2022-11-22T02:20:27.697Z,7.83
2022-11-22T02:21:27.685Z,7.80
2022-11-22T02:22:27.666Z,7.85
2022-11-22T02:23:27.684Z,7.82
2022-11-22T02:24:27.656Z,7.85
2022-11-22T02:25:27.638Z,7.94
2022-11-22T02:26:27.645Z,8.05
2022-11-22T02:27:27.615Z,7.94
2022-11-22T02:28:27.611Z,8.06
2022-11-22T02:29:27.860Z,8.09
2022-11-22T02:30:27.587Z,8.13
2022-11-22T02:31:27.565Z,8.15
2022-11-22T02:32:27.554Z,8.19
2022-11-22T02:33:27.553Z,8.20
2022-11-22T02:34:27.573Z,8.20
2022-11-22T02:35:27.536Z,8.09
2022-11-22T02:36:27.511Z,8.00
2022-11-22T02:37:27.503Z,8.08
2022-11-22T02:38:27.493Z,8.10
2022-11-22T02:39:27.777Z,8.10
2022-11-22T02:40:27.485Z,8.09
2022-11-22T02:41:27.463Z,8.16
2022-11-22T02:42:27.442Z,8.30
2022-11-22T02:43:27.434Z,8.34
2022-11-22T02:44:27.423Z,8.37
2022-11-22T02:45:27.414Z,8.42
2022-11-22T02:46:27.425Z,8.34
2022-11-22T02:47:27.394Z,8.20
2022-11-22T02:48:27.373Z,8.01
2022-11-22T02:49:27.368Z,8.06
2022-11-22T02:50:27.354Z,8.09
2022-11-22T02:51:27.341Z,8.10
2022-11-22T02:52:27.345Z,8.13
2022-11-22T02:53:27.323Z,8.19
2022-11-22T02:54:27.302Z,8.28
2022-11-22T02:55:27.301Z,8.19
2022-11-22T02:56:27.285Z,8.30
2022-11-22T02:57:27.277Z,8.23
2022-11-22T02:58:27.283Z,8.13
2022-11-22T02:59:27.750Z,8.09
2022-11-22T03:00:27.253Z,8.00
2022-11-22T03:01:27.297Z,8.08
2022-11-22T03:02:27.212Z,8.03
2022-11-22T03:03:27.202Z,8.00
2022-11-22T03:04:27.214Z,8.09
2022-11-22T03:05:27.183Z,8.20
2022-11-22T03:06:27.163Z,8.16
2022-11-22T03:07:27.195Z,8.20
2022-11-22T03:08:27.142Z,8.27
2022-11-22T03:09:27.321Z,8.27
2022-11-22T03:10:27.141Z,8.33
2022-11-22T03:11:27.103Z,8.41
2022-11-22T03:12:27.091Z,8.33
2022-11-22T03:13:27.130Z,8.18
2022-11-22T03:14:27.073Z,8.30
2022-11-22T03:15:27.062Z,8.36
2022-11-22T03:16:27.068Z,8.42
2022-11-22T03:17:27.041Z,8.46
2022-11-22T03:18:27.025Z,8.55
2022-11-22T03:19:27.120Z,8.63
2022-11-22T03:20:27.004Z,8.55
2022-11-22T03:21:27.028Z,8.63
2022-11-22T03:22:26.981Z,8.49
2022-11-22T03:23:26.972Z,8.51
2022-11-22T03:24:26.951Z,8.48
2022-11-22T03:25:26.943Z,8.42
2022-11-22T03:26:26.931Z,8.30
2022-11-22T03:27:26.992Z,8.30
2022-11-22T03:28:26.911Z,8.30
2022-11-22T03:29:27.058Z,8.28
2022-11-22T03:30:26.883Z,8.24
2022-11-22T03:31:26.892Z,8.24
2022-11-22T03:32:26.863Z,8.26
2022-11-22T03:33:26.879Z,8.23
2022-11-22T03:34:26.841Z,8.13
2022-11-22T03:35:26.826Z,8.15
2022-11-22T03:36:26.822Z,8.18
2022-11-22T03:37:26.802Z,8.09
2022-11-22T03:38:26.798Z,8.13
2022-11-22T03:39:26.934Z,8.09
2022-11-22T03:40:26.799Z,8.08
2022-11-22T03:41:26.761Z,8.13
2022-11-22T03:42:26.750Z,8.08
2022-11-22T03:43:26.742Z,8.16
2022-11-22T03:44:26.876Z,8.20
2022-11-22T03:45:26.720Z,8.08
2022-11-22T03:46:26.709Z,8.12
2022-11-22T03:47:26.694Z,8.12
2022-11-22T03:48:26.693Z,8.08
2022-11-22T03:49:26.671Z,8.12
2022-11-22T03:50:26.691Z,8.12
2022-11-22T03:51:26.643Z,8.08
2022-11-22T03:52:26.644Z,8.08
2022-11-22T03:53:26.631Z,8.01
2022-11-22T03:54:26.610Z,8.00
2022-11-22T03:55:26.601Z,7.94
2022-11-22T03:56:26.623Z,8.08
2022-11-22T03:57:26.572Z,8.03
2022-11-22T03:58:26.579Z,8.09
2022-11-22T03:59:26.782Z,8.12
2022-11-22T04:00:26.545Z,8.12
2022-11-22T04:01:26.621Z,8.18
2022-11-22T04:02:26.545Z,8.10
2022-11-22T04:03:26.519Z,8.18
2022-11-22T04:04:26.621Z,8.13
2022-11-22T04:05:26.482Z,8.08
2022-11-22T04:06:26.481Z,8.10
2022-11-22T04:07:26.500Z,8.01
2022-11-22T04:08:26.479Z,7.90
2022-11-22T04:09:26.475Z,8.10
2022-11-22T04:10:26.433Z,8.18
2022-11-22T04:11:26.422Z,8.30
2022-11-22T04:12:26.407Z,8.31
2022-11-22T04:13:26.394Z,8.30
2022-11-22T04:14:26.408Z,8.27
2022-11-22T04:15:26.367Z,8.30
2022-11-22T04:16:26.359Z,8.28
2022-11-22T04:17:26.347Z,8.24
2022-11-22T04:18:33.382Z,8.26
2022-11-22T04:19:29.327Z,8.19
2022-11-22T04:20:26.320Z,8.18
2022-11-22T04:21:26.302Z,8.20
2022-11-22T04:22:26.290Z,8.15
2022-11-22T04:23:30.713Z,8.08
2022-11-22T04:24:27.288Z,8.18
2022-11-22T04:25:26.252Z,8.24
2022-11-22T04:26:26.242Z,8.19
2022-11-22T04:27:26.230Z,8.20
2022-11-22T04:28:40.912Z,8.24
2022-11-22T04:29:27.344Z,8.27
2022-11-22T04:30:26.224Z,8.16
2022-11-22T04:31:26.184Z,8.26
2022-11-22T04:32:26.173Z,8.23
2022-11-22T04:33:26.161Z,8.28
2022-11-22T04:34:26.150Z,8.23
2022-11-22T04:35:26.139Z,8.24
2022-11-22T04:36:26.153Z,8.23
2022-11-22T04:37:26.111Z,8.23
2022-11-22T04:38:26.112Z,8.26
2022-11-22T04:39:26.093Z,8.26
2022-11-22T04:40:26.092Z,8.31
2022-11-22T04:41:26.080Z,8.34
2022-11-22T04:42:26.081Z,8.27
2022-11-22T04:43:26.042Z,8.27
2022-11-22T04:44:26.040Z,8.23
2022-11-22T04:45:26.029Z,8.15
2022-11-22T04:46:26.017Z,8.26
2022-11-22T04:47:26.001Z,8.34
2022-11-22T04:48:26.027Z,8.38
2022-11-22T04:49:25.978Z,8.41
2022-11-22T04:50:25.970Z,8.36
2022-11-22T04:51:25.953Z,8.45
2022-11-22T04:52:25.940Z,8.36
2022-11-22T04:53:25.929Z,8.38
2022-11-22T04:54:25.940Z,8.34
2022-11-22T04:55:25.908Z,8.44
2022-11-22T04:56:25.900Z,8.34
2022-11-22T04:57:25.888Z,8.30
2022-11-22T04:58:25.873Z,8.28
2022-11-22T04:59:25.879Z,8.37
2022-11-22T05:00:25.850Z,8.34
2022-11-22T05:01:25.928Z,8.31
2022-11-22T05:02:25.835Z,8.31
2022-11-22T05:03:25.809Z,8.38
2022-11-22T05:04:25.813Z,8.52
2022-11-22T05:05:25.812Z,8.52
2022-11-22T05:06:25.780Z,8.63
2022-11-22T05:07:25.844Z,8.69
2022-11-22T05:08:25.758Z,8.66
2022-11-22T05:09:25.748Z,8.70
2022-11-22T05:10:26.988Z,8.76
2022-11-22T05:11:25.739Z,8.78
2022-11-22T05:12:25.710Z,8.73
2022-11-22T05:13:25.699Z,8.70
2022-11-22T05:14:25.689Z,8.71
2022-11-22T05:15:25.684Z,8.66
2022-11-22T05:16:25.689Z,8.69
2022-11-22T05:17:25.649Z,8.73
2022-11-22T05:18:25.648Z,8.64
2022-11-22T05:19:25.629Z,8.70
2022-11-22T05:20:25.629Z,8.84
2022-11-22T05:21:25.609Z,8.87
2022-11-22T05:22:25.631Z,8.78
2022-11-22T05:23:25.581Z,8.78
2022-11-22T05:24:25.582Z,8.91
2022-11-22T05:25:25.969Z,9.02
2022-11-22T05:26:25.548Z,8.81
2022-11-22T05:27:25.537Z,8.81
2022-11-22T05:28:25.549Z,8.84
2022-11-22T05:29:25.517Z,8.79
2022-11-22T05:30:25.511Z,8.87
2022-11-22T05:31:25.492Z,8.82
2022-11-22T05:32:25.480Z,8.87
2022-11-22T05:33:25.468Z,8.92
2022-11-22T05:34:25.468Z,8.95
2022-11-22T05:35:25.449Z,8.79
2022-11-22T05:36:25.436Z,8.78
2022-11-22T05:37:25.419Z,8.78
2022-11-22T05:38:25.417Z,8.88
2022-11-22T05:39:25.420Z,8.94
2022-11-22T05:40:25.388Z,8.94
2022-11-22T05:41:25.378Z,8.78
2022-11-22T05:42:25.368Z,8.78
2022-11-22T05:43:25.348Z,8.81
2022-11-22T05:44:25.349Z,8.87
2022-11-22T05:45:25.349Z,8.95
2022-11-22T05:46:25.545Z,8.82
2022-11-22T05:47:25.307Z,8.82
2022-11-22T05:48:25.298Z,8.71
2022-11-22T05:49:25.288Z,8.78
2022-11-22T05:50:25.298Z,8.89
2022-11-22T05:51:29.104Z,8.92
2022-11-22T05:52:26.248Z,8.88
2022-11-22T05:53:25.243Z,8.94
2022-11-22T05:54:25.227Z,8.87
2022-11-22T05:55:25.216Z,8.84
2022-11-22T05:56:25.233Z,8.91
2022-11-22T05:57:25.198Z,9.06
2022-11-22T05:58:25.187Z,9.06
2022-11-22T05:59:25.168Z,8.99
2022-11-22T06:00:25.171Z,8.92
2022-11-22T06:01:25.150Z,8.78
2022-11-22T06:02:25.231Z,8.85
2022-11-22T06:03:25.120Z,8.85
2022-11-22T06:04:25.117Z,8.82
2022-11-22T06:05:25.108Z,8.87
2022-11-22T06:06:25.088Z,8.87
2022-11-22T06:07:25.138Z,8.89
2022-11-22T06:08:25.067Z,8.94
2022-11-22T06:09:25.074Z,8.87
2022-11-22T06:10:25.047Z,8.88
2022-11-22T06:11:25.037Z,8.85
2022-11-22T06:12:25.018Z,8.92
2022-11-22T06:13:25.027Z,8.84
2022-11-22T06:14:24.999Z,8.85
2022-11-22T06:15:24.993Z,8.87
2022-11-22T06:16:24.978Z,8.82
2022-11-22T06:17:24.958Z,8.78
2022-11-22T06:18:24.958Z,8.70
2022-11-22T06:19:24.956Z,8.74
2022-11-22T06:20:24.935Z,8.87
2022-11-22T06:21:24.918Z,8.95
2022-11-22T06:22:24.908Z,8.95
2022-11-22T06:23:24.895Z,8.79
2022-11-22T06:24:24.916Z,8.70
2022-11-22T06:25:24.876Z,8.78
2022-11-22T06:26:24.870Z,8.82
2022-11-22T06:27:24.848Z,8.84
2022-11-22T06:28:24.838Z,8.81
2022-11-22T06:29:24.835Z,8.78
2022-11-22T06:30:24.838Z,8.84
2022-11-22T06:31:24.820Z,8.78
2022-11-22T06:32:24.935Z,8.87
2022-11-22T06:33:24.779Z,8.81
2022-11-22T06:34:24.779Z,8.84
2022-11-22T06:35:24.770Z,8.78
2022-11-22T06:36:24.770Z,8.76
2022-11-22T06:37:24.729Z,8.79
2022-11-22T06:38:24.732Z,8.73
2022-11-22T06:39:24.722Z,8.78
2022-11-22T06:40:24.708Z,8.63
2022-11-22T06:41:24.712Z,8.66
2022-11-22T06:42:24.677Z,8.71
2022-11-22T06:43:24.657Z,8.74
2022-11-22T06:44:24.655Z,8.82
2022-11-22T06:45:24.647Z,8.78
2022-11-22T06:46:24.631Z,8.84
2022-11-22T06:47:24.635Z,8.81
2022-11-22T06:48:24.607Z,8.84
2022-11-22T06:49:24.587Z,8.85
2022-11-22T06:50:24.586Z,8.85
2022-11-22T06:51:24.573Z,8.84
2022-11-22T06:52:24.576Z,8.78
2022-11-22T06:53:45.813Z,8.79
2022-11-22T06:54:25.535Z,8.71
2022-11-22T06:55:48.975Z,8.70
2022-11-22T06:56:25.515Z,8.71
2022-11-22T06:57:24.531Z,8.69
2022-11-22T06:58:24.498Z,8.66
2022-11-22T06:59:24.497Z,8.66
2022-11-22T07:00:24.484Z,8.64
2022-11-22T07:01:24.596Z,8.64
2022-11-22T07:02:24.446Z,8.60
2022-11-22T07:03:24.434Z,8.55
2022-11-22T07:04:24.426Z,8.48
2022-11-22T07:05:25.903Z,8.52
2022-11-22T07:06:24.407Z,8.46
2022-11-22T07:07:24.429Z,8.55
2022-11-22T07:08:24.379Z,8.49
2022-11-22T07:09:24.366Z,8.58
2022-11-22T07:10:24.375Z,8.58
2022-11-22T07:11:24.339Z,8.60
2022-11-22T07:12:24.336Z,8.66
2022-11-22T07:13:24.323Z,8.70
2022-11-22T07:14:24.314Z,8.61
2022-11-22T07:15:24.294Z,8.58
2022-11-22T07:16:24.308Z,8.60
2022-11-22T07:17:24.274Z,8.58
2022-11-22T07:18:24.263Z,8.66
2022-11-22T07:19:24.254Z,8.61
2022-11-22T07:20:24.244Z,8.71
2022-11-22T07:21:24.223Z,8.67
2022-11-22T07:22:24.234Z,8.74
2022-11-22T07:23:24.204Z,8.66
2022-11-22T07:24:24.194Z,8.73
2022-11-22T07:25:24.183Z,8.87
2022-11-22T07:26:24.174Z,8.91
2022-11-22T07:27:24.174Z,8.87
2022-11-22T07:28:24.163Z,8.85
2022-11-22T07:29:24.135Z,8.73
2022-11-22T07:30:24.123Z,8.67
2022-11-22T07:31:24.111Z,8.61
2022-11-22T07:32:24.103Z,8.58
2022-11-22T07:33:24.094Z,8.70
2022-11-22T07:34:24.102Z,8.74
2022-11-22T07:35:24.070Z,8.85
2022-11-22T07:36:24.053Z,8.87
2022-11-22T07:37:24.045Z,8.79
2022-11-22T07:38:24.035Z,8.82
2022-11-22T07:39:24.015Z,8.89
2022-11-22T07:40:24.053Z,8.88
2022-11-22T07:41:24.008Z,8.99
2022-11-22T07:42:26.178Z,9.06
2022-11-22T07:43:23.972Z,8.99
2022-11-22T07:44:23.962Z,8.87
2022-11-22T07:45:23.952Z,8.85
2022-11-22T07:46:23.971Z,8.91
2022-11-22T07:47:23.933Z,8.79
2022-11-22T07:48:23.912Z,8.81
2022-11-22T07:49:23.903Z,8.88
2022-11-22T07:50:23.892Z,8.91
2022-11-22T07:51:23.901Z,8.79
2022-11-22T07:52:23.892Z,8.82
2022-11-22T07:53:23.861Z,8.82
2022-11-22T07:54:23.850Z,8.79
2022-11-22T07:55:23.831Z,8.73
2022-11-22T07:56:23.821Z,8.71
2022-11-22T07:57:23.813Z,8.70
2022-11-22T07:58:23.811Z,8.70
2022-11-22T07:59:23.791Z,8.78
2022-11-22T08:00:23.773Z,8.66
2022-11-22T08:01:23.937Z,8.66
2022-11-22T08:02:23.751Z,8.63
2022-11-22T08:03:28.625Z,8.63
2022-11-22T08:04:24.732Z,8.69
2022-11-22T08:05:23.721Z,8.79
2022-11-22T08:06:23.710Z,8.85
2022-11-22T08:07:23.728Z,8.91
2022-11-22T08:08:23.683Z,8.85
2022-11-22T08:09:23.691Z,8.87
2022-11-22T08:10:23.661Z,8.87
2022-11-22T08:11:23.652Z,8.85
2022-11-22T08:12:23.641Z,8.84
2022-11-22T08:13:23.632Z,8.87
2022-11-22T08:14:23.632Z,8.89
2022-11-22T08:15:23.607Z,8.94
2022-11-22T08:16:23.591Z,8.92
2022-11-22T08:17:23.583Z,8.91
2022-11-22T08:18:23.571Z,8.92
2022-11-22T08:19:23.561Z,8.97
2022-11-22T08:20:23.571Z,8.91
2022-11-22T08:21:23.531Z,8.87
2022-11-22T08:22:23.522Z,8.85
2022-11-22T08:23:23.517Z,8.92
2022-11-22T08:24:23.499Z,8.95
2022-11-22T08:25:23.490Z,9.03
2022-11-22T08:26:23.492Z,9.11
2022-11-22T08:27:23.461Z,9.06
2022-11-22T08:28:23.451Z,9.08
2022-11-22T08:29:23.440Z,9.11
2022-11-22T08:30:23.421Z,9.00
2022-11-22T08:31:23.420Z,9.16
2022-11-22T08:32:23.420Z,9.23
2022-11-22T08:33:23.400Z,9.32
2022-11-22T08:34:23.381Z,9.36
2022-11-22T08:35:23.381Z,9.37
2022-11-22T08:36:23.361Z,9.39
2022-11-22T08:37:23.370Z,9.44
2022-11-22T08:38:23.339Z,9.51
2022-11-22T08:39:23.330Z,9.51
2022-11-22T08:40:23.319Z,9.48
2022-11-22T08:41:23.310Z,9.50
2022-11-22T08:42:23.289Z,9.32
2022-11-22T08:43:23.339Z,9.23
2022-11-22T08:44:23.270Z,9.28
2022-11-22T08:45:23.261Z,9.25
2022-11-22T08:46:23.249Z,9.34
2022-11-22T08:47:23.239Z,9.31
2022-11-22T08:48:23.234Z,9.28
2022-11-22T08:49:23.239Z,9.39
2022-11-22T08:50:23.200Z,9.29
2022-11-22T08:51:23.199Z,9.32
2022-11-22T08:52:23.179Z,9.39
2022-11-22T08:53:23.173Z,9.37
2022-11-22T08:54:23.159Z,9.51
2022-11-22T08:55:23.179Z,9.54
2022-11-22T08:56:23.140Z,9.44
2022-11-22T08:57:23.129Z,9.47
2022-11-22T08:58:23.129Z,9.39
2022-11-22T08:59:23.174Z,9.46
2022-11-22T09:00:23.136Z,9.40
2022-11-22T09:01:23.184Z,9.39
2022-11-22T09:02:23.072Z,9.34
2022-11-22T09:03:23.060Z,9.31
2022-11-22T09:04:23.050Z,9.39
2022-11-22T09:05:23.220Z,9.56
2022-11-22T09:08:24.160Z,9.73
2022-11-22T09:09:36.812Z,9.82
2022-11-22T09:10:23.978Z,9.92
2022-11-22T09:11:22.978Z,9.95
2022-11-22T09:12:22.978Z,9.91
2022-11-22T09:13:22.948Z,9.97
2022-11-22T09:14:22.939Z,9.84
2022-11-22T09:15:22.928Z,9.72
2022-11-22T09:16:22.920Z,9.84
2022-11-22T09:17:22.929Z,9.82
2022-11-22T09:18:22.889Z,9.87
2022-11-22T09:19:22.888Z,9.99
2022-11-22T09:20:22.868Z,10.12
2022-11-22T09:21:22.859Z,10.19
2022-11-22T09:22:28.030Z,10.23
2022-11-22T09:23:23.863Z,10.26
2022-11-22T09:24:22.840Z,10.33
2022-11-22T09:25:22.818Z,10.38
2022-11-22T09:26:22.800Z,10.30
2022-11-22T09:27:22.797Z,10.33
2022-11-22T09:28:22.807Z,10.40
2022-11-22T09:29:22.778Z,10.51
2022-11-22T09:30:22.760Z,10.57
2022-11-22T09:31:22.749Z,10.59
2022-11-22T09:32:22.738Z,10.64
2022-11-22T09:33:22.728Z,10.69
2022-11-22T09:34:22.738Z,10.60
2022-11-22T09:35:22.709Z,10.60
2022-11-22T09:36:22.696Z,10.63
2022-11-22T09:37:22.689Z,10.64
2022-11-22T09:38:22.670Z,10.71
2022-11-22T09:39:22.667Z,10.59
2022-11-22T09:40:22.676Z,10.54
2022-11-22T09:41:22.646Z,10.60
2022-11-22T09:42:22.629Z,10.48
2022-11-22T09:43:22.648Z,10.35
2022-11-22T09:44:22.599Z,10.48
2022-11-22T09:45:22.596Z,10.67
2022-11-22T09:46:22.636Z,10.78
2022-11-22T09:47:22.575Z,10.76
2022-11-22T09:48:22.560Z,10.78
2022-11-22T09:49:22.550Z,10.79
2022-11-22T09:50:22.537Z,10.82
2022-11-22T09:51:22.553Z,10.89
2022-11-22T09:52:22.538Z,10.90
2022-11-22T09:53:22.508Z,10.96
2022-11-22T09:54:22.488Z,11.04
2022-11-22T09:55:24.231Z,11.02
2022-11-22T09:56:22.468Z,11.04
2022-11-22T09:57:22.458Z,11.14
2022-11-22T09:58:22.468Z,11.18
2022-11-22T09:59:22.438Z,11.26
2022-11-22T10:00:22.420Z,11.30
2022-11-22T10:01:22.482Z,11.29
2022-11-22T10:02:22.418Z,11.36
2022-11-22T10:03:22.407Z,11.43
2022-11-22T10:04:22.378Z,11.45
2022-11-22T10:05:22.378Z,11.52
2022-11-22T10:06:22.360Z,11.52
2022-11-22T10:07:22.411Z,11.33
2022-11-22T10:08:22.358Z,11.22
2022-11-22T10:09:22.327Z,11.19
2022-11-22T10:10:22.311Z,11.23
2022-11-22T10:11:22.339Z,11.25
2022-11-22T10:12:22.287Z,11.15
2022-11-22T10:13:22.279Z,11.14
2022-11-22T10:14:22.287Z,11.05
2022-11-22T10:15:22.257Z,10.90
2022-11-22T10:16:22.246Z,10.87
2022-11-22T10:17:22.237Z,10.71
2022-11-22T10:18:22.218Z,10.68
2022-11-22T10:19:22.208Z,10.56
2022-11-22T10:20:22.217Z,10.48
2022-11-22T10:21:22.189Z,10.53
2022-11-22T10:22:22.178Z,10.56
2022-11-22T10:23:22.177Z,10.59
2022-11-22T10:24:22.168Z,10.72
2022-11-22T10:25:22.183Z,10.82
2022-11-22T10:26:22.131Z,10.94
2022-11-22T10:27:22.147Z,10.99
2022-11-22T10:28:22.110Z,10.74
2022-11-22T10:29:22.101Z,10.68
2022-11-22T10:30:22.088Z,10.68
2022-11-22T10:31:22.098Z,10.75
2022-11-22T10:32:29.179Z,10.61
2022-11-22T10:33:22.056Z,10.48
2022-11-22T10:34:22.048Z,10.53
2022-11-22T10:35:22.046Z,10.68
2022-11-22T10:36:22.047Z,10.81
2022-11-22T10:37:22.008Z,10.67
2022-11-22T10:38:22.006Z,10.72
2022-11-22T10:39:21.999Z,10.74
2022-11-22T10:40:21.983Z,10.90
2022-11-22T10:41:21.969Z,10.84
2022-11-22T10:42:21.970Z,10.54
2022-11-22T10:43:21.951Z,10.54
2022-11-22T10:44:21.940Z,10.67
2022-11-22T10:45:21.937Z,10.64
2022-11-22T10:46:21.921Z,10.79
2022-11-22T10:47:21.929Z,10.81
2022-11-22T10:48:21.889Z,10.92
2022-11-22T10:49:21.892Z,10.86
2022-11-22T10:50:21.867Z,10.74
2022-11-22T10:51:21.874Z,10.64
2022-11-22T10:52:21.847Z,10.67
2022-11-22T10:53:21.871Z,10.68
2022-11-22T10:54:21.822Z,10.84
2022-11-22T10:55:21.808Z,10.76
2022-11-22T10:56:21.800Z,10.72
2022-11-22T10:57:21.788Z,10.82
2022-11-22T10:58:21.779Z,10.87
2022-11-22T10:59:27.255Z,11.02
2022-11-22T11:00:22.763Z,10.93
2022-11-22T11:01:21.838Z,10.82
2022-11-22T11:02:21.731Z,10.97
2022-11-22T11:03:21.730Z,11.02
2022-11-22T11:04:21.708Z,11.07
2022-11-22T11:05:21.737Z,11.14
2022-11-22T11:06:26.699Z,11.11
2022-11-22T11:07:22.762Z,11.12
2022-11-22T11:08:42.084Z,11.23
2022-11-22T11:10:29.531Z,11.27
2022-11-22T11:11:22.637Z,10.90
2022-11-22T11:12:21.618Z,10.76
2022-11-22T11:13:21.607Z,10.76
2022-11-22T11:14:21.603Z,10.93
2022-11-22T11:15:21.620Z,10.94
2022-11-22T11:16:21.593Z,10.87
2022-11-22T11:17:21.568Z,10.96
2022-11-22T11:18:21.559Z,11.11
2022-11-22T11:19:21.548Z,10.97
2022-11-22T11:20:21.529Z,11.00
2022-11-22T11:21:21.536Z,10.96
2022-11-22T11:22:44.259Z,11.05
2022-11-22T11:23:22.499Z,11.12
2022-11-22T11:24:21.492Z,11.02
2022-11-22T11:25:21.476Z,11.05
2022-11-22T11:26:21.500Z,11.04
2022-11-22T11:27:21.448Z,10.69
2022-11-22T11:28:21.439Z,10.53
2022-11-22T11:29:21.439Z,10.54
2022-11-22T11:30:21.417Z,10.44
2022-11-22T11:31:21.418Z,10.49
2022-11-22T11:32:21.420Z,10.75
2022-11-22T11:33:21.378Z,10.94
2022-11-22T11:34:21.370Z,10.90
2022-11-22T11:35:21.372Z,11.11
2022-11-22T11:36:21.358Z,11.18
2022-11-22T11:37:21.367Z,11.00
2022-11-22T11:38:21.347Z,11.00
2022-11-22T11:39:21.327Z,11.04
2022-11-22T11:40:21.309Z,11.30
2022-11-22T11:41:21.315Z,11.23
2022-11-22T11:42:21.278Z,11.22
2022-11-22T11:43:21.323Z,11.41
2022-11-22T11:44:21.268Z,11.23
2022-11-22T11:45:21.248Z,11.23
2022-11-22T11:46:21.240Z,11.29
2022-11-22T11:47:21.226Z,11.52
2022-11-22T11:48:21.207Z,11.60
2022-11-22T11:49:21.252Z,11.77
2022-11-22T11:50:24.339Z,11.86
2022-11-22T11:51:21.190Z,11.91
2022-11-22T11:52:21.169Z,11.60
2022-11-22T11:53:21.160Z,11.40
2022-11-22T11:54:21.147Z,11.17
2022-11-22T11:55:21.161Z,11.07
2022-11-22T11:56:21.130Z,11.05
2022-11-22T11:57:21.121Z,11.26
2022-11-22T11:58:21.097Z,11.44
2022-11-22T11:59:21.087Z,11.57
2022-11-22T12:00:21.078Z,11.63
2022-11-22T12:01:21.088Z,11.60
2022-11-22T12:02:21.090Z,11.54
2022-11-22T12:03:21.049Z,11.35
2022-11-22T12:04:21.038Z,11.33
2022-11-22T12:05:21.028Z,11.05
2022-11-22T12:06:21.017Z,10.90
2022-11-22T12:07:21.110Z,10.76
2022-11-22T12:08:20.998Z,10.71
2022-11-22T12:09:20.977Z,10.48
2022-11-22T12:10:20.968Z,10.61
2022-11-22T12:11:20.957Z,10.54
2022-11-22T12:12:20.949Z,10.57
2022-11-22T12:13:20.957Z,10.59
2022-11-22T12:14:20.972Z,10.56
2022-11-22T12:15:20.925Z,10.71
2022-11-22T12:16:21.013Z,10.72
2022-11-22T12:17:20.892Z,10.93
2022-11-22T12:18:20.880Z,10.99
2022-11-22T12:19:24.804Z,11.25
2022-11-22T12:20:20.858Z,11.37
2022-11-22T12:21:20.857Z,11.44
2022-11-22T12:22:42.595Z,11.36
2022-11-22T12:23:21.822Z,11.19
2022-11-22T12:24:45.232Z,11.14
2022-11-22T12:25:32.530Z,11.17
2022-11-22T12:26:21.798Z,11.29
2022-11-22T12:27:20.779Z,11.26
2022-11-22T12:28:20.787Z,11.08
2022-11-22T12:29:20.758Z,11.05
2022-11-22T12:30:20.758Z,10.97
2022-11-22T12:31:20.763Z,10.93
2022-11-22T12:32:20.721Z,10.75
2022-11-22T12:33:20.708Z,10.89
2022-11-22T12:34:20.701Z,11.00
2022-11-22T12:35:20.689Z,11.08
2022-11-22T12:36:20.678Z,11.18
2022-11-22T12:37:20.688Z,11.37
2022-11-22T12:38:20.660Z,11.59
2022-11-22T12:39:20.641Z,11.26
2022-11-22T12:40:21.337Z,11.17
2022-11-22T12:41:20.619Z,11.14
2022-11-22T12:42:23.194Z,11.23
2022-11-22T12:43:20.620Z,11.19
2022-11-22T12:44:20.587Z,11.12
2022-11-22T12:45:20.959Z,11.15
2022-11-22T12:46:26.120Z,11.22
2022-11-22T12:47:21.549Z,11.35
2022-11-22T12:48:20.541Z,11.47
2022-11-22T12:49:20.584Z,11.60
2022-11-22T12:50:20.520Z,11.50
2022-11-22T12:51:20.508Z,11.55
2022-11-22T12:52:20.499Z,11.48
2022-11-22T12:53:20.478Z,11.54
2022-11-22T12:54:20.480Z,11.52
2022-11-22T12:55:20.500Z,11.32
2022-11-22T12:56:20.466Z,11.35
2022-11-22T12:57:20.441Z,11.41
2022-11-22T12:58:20.427Z,11.41
2022-11-22T12:59:20.420Z,11.23
2022-11-22T13:00:20.413Z,10.96
2022-11-22T13:01:20.507Z,10.96
2022-11-22T13:02:20.388Z,10.90
2022-11-22T13:03:20.375Z,10.94
2022-11-22T13:04:20.369Z,11.05
2022-11-22T13:05:20.349Z,11.05
2022-11-22T13:06:20.342Z,11.18
2022-11-22T13:07:20.402Z,11.19
2022-11-22T13:08:20.318Z,11.30
2022-11-22T13:09:20.307Z,11.26
2022-11-22T13:10:20.299Z,11.29
2022-11-22T13:11:20.289Z,11.30
2022-11-22T13:12:20.308Z,11.29
2022-11-22T13:13:20.298Z,11.33